createdAt,value
2022-11-21T00:01:17.910Z,91.38
2022-11-21T00:03:45.946Z,91.59
2022-11-21T00:06:14.135Z,92.20
2022-11-21T00:08:42.474Z,91.96
2022-11-21T00:11:10.474Z,91.76
2022-11-21T00:13:38.407Z,92.68
2022-11-21T00:16:09.561Z,92.66
2022-11-21T00:18:37.727Z,93.38
2022-11-21T00:21:06.908Z,93.21
2022-11-21T00:23:35.129Z,92.40
2022-11-21T00:26:06.290Z,92.67
2022-11-21T00:28:35.050Z,92.35
2022-11-21T00:31:03.292Z,91.48
2022-11-21T00:33:33.022Z,91.24
2022-11-21T00:36:07.680Z,91.58
2022-11-21T00:38:35.972Z,90.87
2022-11-21T00:41:03.936Z,91.27
2022-11-21T00:43:31.984Z,90.89
2022-11-21T00:46:02.548Z,90.58
2022-11-21T00:48:32.581Z,90.54
2022-11-21T00:51:01.528Z,90.22
2022-11-21T00:53:29.810Z,90.36
2022-11-21T00:55:57.897Z,90.28
2022-11-21T00:58:25.978Z,90.39
2022-11-21T01:00:54.410Z,90.26
2022-11-21T01:03:22.342Z,90.65
2022-11-21T01:05:51.621Z,90.44
2022-11-21T01:08:19.599Z,90.49
2022-11-21T01:10:47.509Z,90.43
2022-11-21T01:13:15.523Z,91.12
2022-11-21T01:15:43.467Z,91.24
2022-11-21T01:18:11.411Z,91.92
2022-11-21T01:20:40.961Z,91.97
2022-11-21T01:23:10.393Z,92.66
2022-11-21T01:25:38.686Z,92.55
2022-11-21T01:28:06.764Z,92.61
2022-11-21T01:30:34.678Z,92.74
2022-11-21T01:33:02.555Z,93.95
2022-11-21T01:35:30.455Z,92.89
2022-11-21T01:37:58.301Z,93.71
2022-11-21T01:40:27.626Z,93.07
2022-11-21T01:42:59.559Z,93.64
2022-11-21T01:45:54.098Z,93.62
2022-11-21T01:48:26.634Z,93.58
2022-11-21T01:50:55.671Z,94.19
2022-11-21T01:53:24.302Z,94.30
2022-11-21T01:55:54.760Z,94.32
2022-11-21T01:58:24.543Z,94.14
2022-11-21T02:00:52.683Z,94.53
2022-11-21T02:03:23.852Z,94.31
2022-11-21T02:05:55.903Z,94.41
2022-11-21T02:08:26.883Z,93.85
2022-11-21T02:11:05.806Z,93.62
2022-11-21T02:13:33.808Z,93.03
2022-11-21T02:16:01.906Z,92.39
2022-11-21T02:18:30.028Z,92.82
2022-11-21T02:21:06.024Z,92.59
2022-11-21T02:23:41.511Z,92.91
2022-11-21T02:26:12.132Z,92.82
2022-11-21T02:28:40.070Z,93.67
2022-11-21T02:31:08.104Z,93.34
2022-11-21T02:33:36.359Z,93.26
2022-11-21T02:36:05.401Z,93.20
2022-11-21T02:38:36.423Z,93.54
2022-11-21T02:41:11.621Z,93.41
2022-11-21T02:43:46.504Z,93.74
2022-11-21T02:46:14.541Z,93.96
2022-11-21T02:48:42.752Z,93.39
2022-11-21T02:51:10.806Z,93.96
2022-11-21T02:53:38.773Z,93.58
2022-11-21T02:56:06.924Z,93.77
2022-11-21T02:58:35.408Z,93.53
2022-11-21T03:01:04.904Z,94.09
2022-11-21T03:03:32.893Z,94.33
2022-11-21T03:06:00.944Z,93.34
2022-11-21T03:08:28.974Z,93.68
2022-11-21T03:10:56.928Z,93.02
2022-11-21T03:13:24.883Z,92.65
2022-11-21T03:15:55.444Z,92.80
2022-11-21T03:18:24.926Z,93.03
2022-11-21T03:20:52.980Z,93.38
2022-11-21T03:23:20.946Z,93.04
2022-11-21T03:25:48.956Z,92.81
2022-11-21T03:28:16.982Z,92.49
2022-11-21T03:30:45.104Z,92.41
2022-11-21T03:33:13.371Z,92.53
2022-11-21T03:35:42.671Z,92.59
2022-11-21T03:38:10.655Z,92.80
2022-11-21T03:40:38.602Z,93.47
2022-11-21T03:43:07.951Z,93.52
2022-11-21T03:45:35.990Z,93.47
2022-11-21T03:48:04.035Z,93.59
2022-11-21T03:50:32.144Z,93.25
2022-11-21T03:53:01.587Z,93.54
2022-11-21T03:55:29.624Z,93.55
2022-11-21T03:57:57.527Z,93.35
2022-11-21T04:00:25.583Z,93.84
2022-11-21T04:02:53.563Z,93.77
2022-11-21T04:05:21.550Z,94.30
2022-11-21T04:07:49.425Z,94.21
2022-11-21T04:10:20.895Z,94.42
2022-11-21T04:12:48.809Z,93.82
2022-11-21T04:15:16.851Z,94.44
2022-11-21T04:17:44.696Z,94.43
2022-11-21T04:20:12.938Z,94.51
2022-11-21T04:22:40.882Z,94.88
2022-11-21T04:25:09.234Z,95.13
2022-11-21T04:27:38.528Z,94.56
2022-11-21T04:30:07.633Z,95.05
2022-11-21T04:32:35.670Z,94.38
2022-11-21T04:35:03.706Z,93.81
2022-11-21T04:37:31.768Z,94.31
2022-11-21T04:39:59.739Z,93.92
2022-11-21T04:42:27.855Z,93.42
2022-11-21T04:44:57.293Z,94.47
2022-11-21T04:47:25.283Z,94.71
2022-11-21T04:49:53.277Z,95.17
2022-11-21T04:52:21.272Z,94.62
2022-11-21T04:54:49.240Z,94.89
2022-11-21T04:57:17.189Z,94.59
2022-11-21T04:59:45.261Z,95.00
2022-11-21T05:02:14.607Z,94.62
2022-11-21T05:04:42.671Z,94.57
2022-11-21T05:07:10.614Z,94.13
2022-11-21T05:09:38.627Z,95.45
2022-11-21T05:12:24.479Z,94.81
2022-11-21T05:14:52.450Z,95.08
2022-11-21T05:17:21.786Z,94.65
2022-11-21T05:19:49.840Z,94.92
2022-11-21T05:22:17.778Z,95.06
2022-11-21T05:24:45.731Z,95.41
2022-11-21T05:27:13.594Z,96.28
2022-11-21T05:29:41.635Z,96.46
2022-11-21T05:32:09.779Z,95.62
2022-11-21T05:34:39.242Z,94.77
2022-11-21T05:37:07.205Z,94.98
2022-11-21T05:39:35.183Z,95.47
2022-11-21T05:42:03.502Z,95.35
2022-11-21T05:44:30.855Z,95.54
2022-11-21T05:46:58.988Z,95.85
2022-11-21T05:49:27.024Z,96.40
2022-11-21T05:51:56.356Z,95.97
2022-11-21T05:54:24.396Z,96.83
2022-11-21T05:56:52.346Z,96.66
2022-11-21T05:59:20.329Z,96.20
2022-11-21T06:02:05.813Z,96.23
2022-11-21T06:04:33.733Z,97.68
2022-11-21T06:07:03.102Z,97.25
2022-11-21T06:09:31.157Z,97.18
2022-11-21T06:11:59.110Z,96.28
2022-11-21T06:14:27.424Z,96.45
2022-11-21T06:16:55.564Z,95.41
2022-11-21T06:19:23.528Z,95.52
2022-11-21T06:21:51.470Z,94.73
2022-11-21T06:24:22.373Z,95.12
2022-11-21T06:26:50.861Z,94.17
2022-11-21T06:29:22.179Z,94.25
2022-11-21T06:31:50.823Z,93.91
2022-11-21T06:34:19.019Z,93.73
2022-11-21T06:36:46.960Z,93.27
2022-11-21T06:39:14.886Z,92.63
2022-11-21T06:41:51.026Z,93.08
2022-11-21T06:44:19.650Z,93.05
2022-11-21T06:46:51.137Z,92.89
2022-11-21T06:49:19.575Z,92.62
2022-11-21T06:51:47.866Z,93.18
2022-11-21T06:54:17.098Z,93.04
2022-11-21T06:56:46.591Z,93.06
2022-11-21T06:59:14.556Z,92.69
2022-11-21T07:01:42.636Z,93.06
2022-11-21T07:04:10.635Z,92.51
2022-11-21T07:06:38.613Z,93.30
2022-11-21T07:12:16.018Z,92.51
2022-11-21T07:14:43.055Z,93.77
2022-11-21T07:17:12.563Z,93.87
2022-11-21T07:19:41.074Z,93.07
2022-11-21T07:22:09.589Z,94.10
2022-11-21T07:24:37.735Z,93.15
2022-11-21T07:27:07.051Z,93.10
2022-11-21T07:29:35.033Z,93.22
2022-11-21T07:32:03.054Z,93.74
2022-11-21T07:34:30.922Z,93.45
2022-11-21T07:36:58.997Z,93.72
2022-11-21T07:39:27.182Z,93.69
2022-11-21T07:41:55.325Z,93.81
2022-11-21T07:44:24.726Z,93.65
2022-11-21T07:46:55.706Z,93.93
2022-11-21T07:49:23.853Z,94.17
2022-11-21T07:51:52.025Z,93.98
2022-11-21T07:54:20.203Z,93.93
2022-11-21T07:56:48.359Z,93.98
2022-11-21T07:59:16.534Z,93.41
2022-11-21T08:01:46.399Z,93.93
2022-11-21T08:04:14.503Z,94.45
2022-11-21T08:06:42.690Z,94.74
2022-11-21T08:09:10.849Z,94.30
2022-11-21T08:11:39.081Z,93.91
2022-11-21T08:14:08.767Z,94.06
2022-11-21T08:16:36.974Z,94.36
2022-11-21T08:19:06.742Z,93.73
2022-11-21T08:21:34.766Z,94.00
2022-11-21T08:24:03.020Z,93.83
2022-11-21T08:26:31.032Z,93.38
2022-11-21T08:29:00.190Z,94.45
2022-11-21T08:31:28.304Z,94.40
2022-11-21T08:33:57.448Z,93.90
2022-11-21T08:36:26.876Z,93.87
2022-11-21T08:38:54.924Z,93.28
2022-11-21T08:41:40.706Z,93.00
2022-11-21T08:44:13.791Z,92.18
2022-11-21T08:46:42.101Z,91.37
2022-11-21T08:49:10.310Z,91.20
2022-11-21T08:51:39.708Z,90.58
2022-11-21T08:54:09.529Z,90.02
2022-11-21T08:56:37.476Z,90.20
2022-11-21T08:59:05.545Z,89.58
2022-11-21T09:01:33.508Z,89.97
2022-11-21T09:04:01.515Z,88.47
2022-11-21T09:06:29.509Z,88.79
2022-11-21T09:08:59.123Z,89.15
2022-11-21T09:11:27.344Z,89.05
2022-11-21T09:14:12.906Z,88.97
2022-11-21T09:17:02.090Z,88.97
2022-11-21T09:19:30.629Z,89.23
2022-11-21T09:21:58.825Z,89.52
2022-11-21T09:24:28.260Z,88.81
2022-11-21T09:26:56.376Z,88.69
2022-11-21T09:29:24.291Z,88.44
2022-11-21T09:31:52.215Z,87.84
2022-11-21T09:34:20.622Z,88.05
2022-11-21T09:36:48.604Z,88.98
2022-11-21T09:39:17.470Z,89.12
2022-11-21T09:42:00.471Z,88.41
2022-11-21T09:44:43.687Z,89.73
2022-11-21T09:47:22.751Z,89.16
2022-11-21T09:49:57.571Z,87.24
2022-11-21T09:52:33.221Z,84.81
2022-11-21T09:55:06.065Z,85.03
2022-11-21T09:57:36.843Z,84.67
2022-11-21T10:00:15.293Z,83.79
2022-11-21T10:02:43.370Z,83.73
2022-11-21T10:05:15.569Z,84.02
2022-11-21T10:07:44.533Z,84.11
2022-11-21T10:10:23.594Z,85.46
2022-11-21T10:13:07.411Z,85.64
2022-11-21T10:15:51.724Z,85.92
2022-11-21T10:18:58.775Z,86.43
2022-11-21T10:21:42.206Z,86.20
2022-11-21T10:24:27.067Z,85.85
2022-11-21T10:26:59.192Z,86.21
2022-11-21T10:29:32.961Z,85.20
2022-11-21T10:32:04.898Z,85.88
2022-11-21T10:34:38.886Z,85.44
2022-11-21T10:37:14.214Z,86.48
2022-11-21T10:39:46.439Z,86.48
2022-11-21T10:42:31.967Z,85.34
2022-11-21T10:45:18.520Z,83.57
2022-11-21T10:47:48.367Z,83.75
2022-11-21T10:50:30.949Z,83.00
2022-11-21T10:53:27.710Z,81.84
2022-11-21T10:56:09.113Z,80.91
2022-11-21T10:58:43.626Z,79.56
2022-11-21T11:01:28.146Z,79.31
2022-11-21T11:04:28.255Z,79.20
2022-11-21T11:07:00.392Z,79.45
2022-11-21T11:09:31.701Z,78.30
2022-11-21T11:12:23.940Z,79.37
2022-11-21T11:14:54.407Z,79.15
2022-11-21T11:17:33.011Z,80.42
2022-11-21T11:20:02.878Z,80.26
2022-11-21T11:22:32.347Z,79.31
2022-11-21T11:25:04.931Z,77.63
2022-11-21T11:27:33.253Z,78.52
2022-11-21T11:30:08.409Z,78.75
2022-11-21T11:32:43.072Z,77.79
2022-11-21T11:35:23.587Z,77.30
2022-11-21T11:38:02.243Z,76.87
2022-11-21T11:40:36.007Z,77.42
2022-11-21T11:43:43.330Z,77.55
2022-11-21T11:46:38.018Z,77.38
2022-11-21T11:49:20.397Z,77.24
2022-11-21T11:51:54.658Z,77.46
2022-11-21T11:54:28.476Z,77.26
2022-11-21T11:56:58.867Z,77.66
2022-11-21T11:59:30.944Z,79.44
2022-11-21T12:02:08.926Z,79.32
2022-11-21T12:04:47.802Z,78.52
2022-11-21T12:10:18.516Z,79.97
2022-11-21T12:12:51.302Z,80.27
2022-11-21T12:15:41.067Z,80.62
2022-11-21T12:18:17.501Z,78.21
2022-11-21T12:21:00.307Z,78.91
2022-11-21T12:23:32.861Z,79.08
2022-11-21T12:26:14.295Z,78.10
2022-11-21T12:28:52.997Z,77.86
2022-11-21T12:31:28.575Z,78.38
2022-11-21T12:34:06.619Z,74.90
2022-11-21T12:36:45.226Z,77.13
2022-11-21T12:39:29.512Z,75.72
2022-11-21T12:42:34.931Z,76.89
2022-11-21T12:45:27.241Z,75.74
2022-11-21T12:48:30.044Z,75.58
2022-11-21T12:51:47.689Z,73.76
2022-11-21T12:54:33.542Z,74.56
2022-11-21T12:57:11.415Z,74.53
2022-11-21T12:59:49.707Z,74.25
2022-11-21T13:02:31.168Z,75.16
2022-11-21T13:05:00.906Z,75.20
2022-11-21T13:07:31.600Z,74.46
2022-11-21T13:10:03.995Z,75.34
2022-11-21T13:12:39.577Z,73.40
2022-11-21T13:15:22.849Z,73.00
2022-11-21T13:17:57.207Z,72.58
2022-11-21T13:20:30.470Z,72.08
2022-11-21T13:22:59.951Z,72.69
2022-11-21T13:25:41.171Z,74.51
2022-11-21T13:28:32.085Z,73.53
2022-11-21T13:31:02.276Z,73.96
2022-11-21T13:33:48.565Z,72.27
2022-11-21T13:36:39.045Z,71.74
2022-11-21T13:39:28.755Z,72.51
2022-11-21T13:42:39.432Z,73.14
2022-11-21T13:45:40.353Z,72.29
2022-11-21T13:48:55.275Z,71.38
2022-11-21T13:51:54.709Z,72.82
2022-11-21T13:54:59.058Z,72.48
2022-11-21T13:57:41.233Z,73.11
2022-11-21T14:00:26.308Z,73.09
2022-11-21T14:03:28.894Z,73.65
2022-11-21T14:06:14.793Z,73.36
2022-11-21T14:08:43.807Z,74.23
2022-11-21T14:11:23.386Z,74.80
2022-11-21T14:13:52.777Z,72.77
2022-11-21T14:16:29.483Z,73.34
2022-11-21T14:18:58.858Z,75.52
2022-11-21T14:21:28.751Z,76.43
2022-11-21T14:23:59.127Z,77.58
2022-11-21T14:26:29.595Z,78.23
2022-11-21T14:29:17.776Z,75.73
2022-11-21T14:31:47.523Z,76.20
2022-11-21T14:34:25.677Z,76.86
2022-11-21T14:36:55.097Z,76.71
2022-11-21T14:39:37.316Z,78.07
2022-11-21T14:42:08.153Z,76.63
2022-11-21T14:44:37.654Z,75.19
2022-11-21T14:47:13.866Z,75.65
2022-11-21T14:49:50.889Z,77.17
2022-11-21T14:52:22.403Z,75.79
2022-11-21T14:55:27.965Z,74.51
2022-11-21T14:57:43.976Z,76.19
2022-11-21T15:00:43.252Z,77.34
2022-11-21T15:03:06.033Z,74.88
2022-11-21T15:08:55.850Z,76.28
2022-11-21T15:11:14.264Z,74.13
2022-11-21T15:14:12.263Z,74.49
2022-11-21T15:16:34.304Z,74.94
2022-11-21T15:19:02.369Z,77.93
2022-11-21T15:21:30.950Z,77.33
2022-11-21T15:23:59.064Z,75.78
2022-11-21T15:26:31.417Z,75.26
2022-11-21T15:29:01.295Z,75.09
2022-11-21T15:31:29.726Z,76.75
2022-11-21T15:34:27.686Z,76.19
2022-11-21T15:37:04.608Z,75.84
2022-11-21T15:39:34.467Z,76.73
2022-11-21T15:42:36.947Z,76.62
2022-11-21T15:45:22.568Z,78.29
2022-11-21T15:47:50.704Z,77.86
2022-11-21T15:50:20.102Z,77.95
2022-11-21T15:52:49.670Z,78.19
2022-11-21T15:55:21.302Z,77.21
2022-11-21T15:57:49.298Z,77.44
2022-11-21T16:00:18.665Z,77.48
2022-11-21T16:02:47.416Z,78.55
2022-11-21T16:05:16.626Z,78.69
2022-11-21T16:07:46.014Z,79.19
2022-11-21T16:10:22.624Z,80.56
2022-11-21T16:17:45.991Z,79.30
2022-11-21T16:20:15.741Z,79.48
2022-11-21T16:22:47.727Z,79.43
2022-11-21T16:25:16.801Z,80.41
2022-11-21T16:27:48.168Z,79.79
2022-11-21T16:30:16.826Z,79.21
2022-11-21T16:32:45.513Z,79.28
2022-11-21T16:35:13.821Z,79.79
2022-11-21T16:37:42.329Z,80.48
2022-11-21T16:40:12.997Z,80.22
2022-11-21T16:42:41.309Z,81.46
2022-11-21T16:45:10.450Z,81.25
2022-11-21T16:47:40.309Z,81.32
2022-11-21T16:50:10.396Z,81.57
2022-11-21T16:52:39.458Z,81.59
2022-11-21T16:55:08.337Z,82.29
2022-11-21T16:57:38.108Z,81.97
2022-11-21T17:00:07.530Z,82.01
2022-11-21T17:02:38.309Z,82.87
2022-11-21T17:05:07.625Z,82.55
2022-11-21T17:07:35.968Z,82.80
2022-11-21T17:10:04.640Z,82.42
2022-11-21T17:12:39.483Z,81.61
2022-11-21T17:15:10.461Z,82.42
2022-11-21T17:17:38.804Z,82.53
2022-11-21T17:20:09.244Z,83.04
2022-11-21T17:22:37.797Z,82.69
2022-11-21T17:25:07.182Z,81.89
2022-11-21T17:27:35.822Z,80.61
2022-11-21T17:30:11.189Z,81.33
2022-11-21T17:32:39.258Z,81.76
2022-11-21T17:35:08.405Z,82.59
2022-11-21T17:37:36.753Z,82.19
2022-11-21T17:40:06.701Z,80.90
2022-11-21T17:42:34.650Z,80.13
2022-11-21T17:45:02.754Z,80.47
2022-11-21T17:47:33.792Z,80.25
2022-11-21T17:50:06.068Z,80.55
2022-11-21T17:52:34.409Z,81.05
2022-11-21T17:55:02.412Z,78.91
2022-11-21T17:57:30.376Z,79.79
2022-11-21T17:59:58.722Z,80.52
2022-11-21T18:02:27.415Z,80.67
2022-11-21T18:04:56.958Z,81.05
2022-11-21T18:07:24.954Z,81.09
2022-11-21T18:09:53.285Z,80.47
2022-11-21T18:12:21.568Z,81.12
2022-11-21T18:14:49.518Z,81.09
2022-11-21T18:17:17.663Z,80.71
2022-11-21T18:19:45.667Z,81.39
2022-11-21T18:22:15.036Z,81.20
2022-11-21T18:24:43.355Z,80.73
2022-11-21T18:27:11.620Z,81.11
2022-11-21T18:29:39.628Z,80.77
2022-11-21T18:32:07.627Z,81.31
2022-11-21T18:34:35.593Z,80.49
2022-11-21T18:37:03.602Z,80.79
2022-11-21T18:39:33.314Z,81.35
2022-11-21T18:42:01.463Z,81.53
2022-11-21T18:44:29.390Z,82.82
2022-11-21T18:46:57.349Z,82.81
2022-11-21T18:49:25.852Z,82.50
2022-11-21T18:51:54.046Z,82.11
2022-11-21T18:54:22.102Z,81.62
2022-11-21T18:56:51.630Z,82.62
2022-11-21T18:59:20.118Z,82.02
2022-11-21T19:01:48.285Z,81.58
2022-11-21T19:04:16.470Z,82.12
2022-11-21T19:06:44.529Z,81.93
2022-11-21T19:09:12.696Z,83.70
2022-11-21T19:11:40.847Z,83.24
2022-11-21T19:14:10.276Z,82.46
2022-11-21T19:16:38.410Z,81.64
2022-11-21T19:21:55.516Z,81.48
2022-11-21T19:24:23.522Z,81.10
2022-11-21T19:26:51.441Z,81.01
2022-11-21T19:29:20.826Z,80.77
2022-11-21T19:31:48.730Z,81.51
2022-11-21T19:34:17.452Z,81.08
2022-11-21T19:36:46.207Z,81.29
2022-11-21T19:39:14.150Z,81.09
2022-11-21T19:41:42.459Z,80.90
2022-11-21T19:44:11.532Z,81.46
2022-11-21T19:46:41.342Z,81.90
2022-11-21T19:49:12.084Z,81.50
2022-11-21T19:51:42.860Z,81.26
2022-11-21T19:54:13.138Z,81.28
2022-11-21T19:56:41.440Z,81.32
2022-11-21T19:59:12.428Z,81.39
2022-11-21T20:01:42.215Z,81.33
2022-11-21T20:04:12.452Z,81.85
2022-11-21T20:06:42.521Z,81.60
2022-11-21T20:09:12.648Z,81.43
2022-11-21T20:11:41.905Z,81.43
2022-11-21T20:14:10.563Z,81.08
2022-11-21T20:16:43.165Z,81.94
2022-11-21T20:19:14.610Z,82.19
2022-11-21T20:21:43.625Z,81.81
2022-11-21T20:24:12.294Z,81.07
2022-11-21T20:26:40.513Z,82.03
2022-11-21T20:29:08.602Z,82.27
2022-11-21T20:31:38.339Z,82.41
2022-11-21T20:34:12.614Z,82.59
2022-11-21T20:36:40.978Z,82.72
2022-11-21T20:39:14.168Z,82.94
2022-11-21T20:41:42.480Z,82.86
2022-11-21T20:45:07.267Z,82.54
2022-11-21T20:47:03.157Z,82.53
2022-11-21T20:49:32.889Z,83.33
2022-11-21T20:54:49.375Z,83.37
2022-11-21T20:57:17.395Z,83.99
2022-11-21T20:59:45.420Z,83.69
2022-11-21T21:02:14.298Z,83.98
2022-11-21T21:04:43.921Z,83.70
2022-11-21T21:07:12.003Z,84.78
2022-11-21T21:09:40.479Z,83.95
2022-11-21T21:12:08.671Z,83.72
2022-11-21T21:14:36.605Z,83.45
2022-11-21T21:17:04.586Z,84.41
2022-11-21T21:19:32.748Z,83.42
2022-11-21T21:22:02.192Z,82.89
2022-11-21T21:24:30.283Z,83.56
2022-11-21T21:26:59.122Z,83.16
2022-11-21T21:29:27.388Z,83.25
2022-11-21T21:31:55.570Z,83.17
2022-11-21T21:34:24.680Z,82.63
2022-11-21T21:36:52.576Z,82.56
2022-11-21T21:39:21.901Z,83.31
2022-11-21T21:41:50.333Z,83.09
2022-11-21T21:44:18.246Z,83.25
2022-11-21T21:46:46.177Z,83.53
2022-11-21T21:49:14.371Z,83.33
2022-11-21T21:51:42.570Z,82.62
2022-11-21T21:54:19.673Z,82.14
2022-11-21T21:56:49.499Z,82.89
2022-11-21T21:59:18.387Z,82.76
2022-11-21T22:01:46.675Z,83.44
2022-11-21T22:04:14.792Z,82.70
2022-11-21T22:06:43.266Z,83.05
2022-11-21T22:09:11.460Z,83.41
2022-11-21T22:11:39.949Z,83.93
2022-11-21T22:14:13.378Z,83.54
2022-11-21T22:16:41.776Z,83.55
2022-11-21T22:19:10.150Z,84.54
2022-11-21T22:21:39.078Z,85.17
2022-11-21T22:24:28.490Z,85.06
2022-11-21T22:26:56.773Z,86.76
2022-11-21T22:29:26.428Z,87.44
2022-11-21T22:31:54.395Z,87.70
2022-11-21T22:34:22.785Z,88.66
2022-11-21T22:36:50.953Z,89.52
2022-11-21T22:39:18.890Z,90.14
2022-11-21T22:41:46.856Z,89.67
2022-11-21T22:44:14.837Z,90.53
2022-11-21T22:46:44.190Z,91.00
2022-11-21T22:49:12.125Z,90.85
2022-11-21T22:51:40.027Z,90.86
2022-11-21T22:54:08.122Z,91.10
2022-11-21T22:56:36.296Z,91.16
2022-11-21T22:59:04.498Z,91.66
2022-11-21T23:01:34.349Z,91.54
2022-11-21T23:04:04.117Z,91.85
2022-11-21T23:06:32.183Z,92.16
2022-11-21T23:09:00.114Z,91.71
2022-11-21T23:11:29.688Z,91.73
2022-11-21T23:13:58.643Z,91.50
2022-11-21T23:16:27.080Z,91.50
2022-11-21T23:18:56.852Z,91.75
2022-11-21T23:21:26.296Z,91.97
2022-11-21T23:23:54.345Z,92.32
2022-11-21T23:26:22.334Z,92.61
2022-11-21T23:28:50.585Z,92.52
2022-11-21T23:31:18.585Z,92.81
2022-11-21T23:33:46.536Z,93.11
2022-11-21T23:36:14.591Z,92.17
2022-11-21T23:38:43.905Z,92.65
2022-11-21T23:41:11.861Z,92.71
2022-11-21T23:43:39.770Z,92.75
2022-11-21T23:46:07.787Z,92.57
2022-11-21T23:48:36.806Z,92.48
2022-11-21T23:51:04.887Z,93.37
2022-11-21T23:53:32.907Z,93.59
2022-11-21T23:56:02.234Z,92.89
2022-11-21T23:58:30.195Z,92.40
